createdAt,value
2019-05-10T00:00:36.576Z,10.30
2019-05-10T00:03:41.607Z,10.40
2019-05-10T00:06:46.911Z,10.40
2019-05-10T00:09:33.450Z,10.40
2019-05-10T00:12:25.551Z,10.40
2019-05-10T00:15:14.342Z,10.40
2019-05-10T00:17:47.000Z,10.40
2019-05-10T00:20:16.525Z,10.40
2019-05-10T00:22:47.255Z,10.30
2019-05-10T00:25:17.066Z,10.30
2019-05-10T00:27:47.967Z,10.20
2019-05-10T00:30:17.552Z,10.10
2019-05-10T00:32:48.232Z,10.10
2019-05-10T00:35:17.847Z,10.10
2019-05-10T00:37:48.678Z,10.10
2019-05-10T00:40:18.260Z,10.00
2019-05-10T00:42:49.132Z,9.90
2019-05-10T00:45:18.634Z,9.90
2019-05-10T00:47:49.559Z,9.90
2019-05-10T00:50:18.999Z,9.80
2019-05-10T00:52:49.780Z,9.70
2019-05-10T00:55:19.650Z,9.70
2019-05-10T00:57:50.685Z,9.70
2019-05-10T01:00:20.083Z,9.70
2019-05-10T01:02:50.963Z,9.70
2019-05-10T01:05:20.476Z,9.70
2019-05-10T01:07:52.992Z,9.70
2019-05-10T01:10:22.483Z,9.80
2019-05-10T01:12:51.899Z,9.70
2019-05-10T01:15:22.790Z,9.70
2019-05-10T01:17:53.407Z,9.60
2019-05-10T01:20:24.183Z,9.60
2019-05-10T01:22:53.583Z,9.50
2019-05-10T01:25:34.460Z,9.50
2019-05-10T01:27:55.459Z,9.50
2019-05-10T01:30:26.283Z,9.60
2019-05-10T01:32:55.834Z,9.60
2019-05-10T01:35:26.815Z,9.70
2019-05-10T01:37:56.322Z,9.70
2019-05-10T01:40:25.826Z,9.80
2019-05-10T01:42:55.326Z,9.80
2019-05-10T01:45:26.036Z,9.70
2019-05-10T01:47:55.679Z,9.70
2019-05-10T01:50:25.084Z,9.60
2019-05-10T01:52:54.536Z,9.50
2019-05-10T01:55:25.300Z,9.30
2019-05-10T01:57:54.731Z,9.40
2019-05-10T02:00:26.603Z,9.30
2019-05-10T02:02:56.070Z,9.20
2019-05-10T02:05:25.479Z,9.20
2019-05-10T02:07:54.985Z,9.20
2019-05-10T02:10:25.782Z,9.20
2019-05-10T02:12:55.214Z,9.20
2019-05-10T02:15:26.040Z,9.20
2019-05-10T02:17:55.492Z,9.20
2019-05-10T02:20:26.283Z,9.20
2019-05-10T02:22:55.806Z,9.10
2019-05-10T02:25:26.675Z,9.10
2019-05-10T02:27:56.215Z,9.10
2019-05-10T02:30:26.949Z,9.10
2019-05-10T02:32:56.462Z,9.00
2019-05-10T02:35:25.933Z,9.00
2019-05-10T02:37:55.455Z,8.90
2019-05-10T02:40:26.348Z,8.90
2019-05-10T02:42:56.015Z,8.90
2019-05-10T02:45:25.435Z,9.00
2019-05-10T02:47:54.833Z,8.90
2019-05-10T02:50:25.740Z,9.00
2019-05-10T02:52:55.154Z,9.00
2019-05-10T02:55:24.656Z,9.00
2019-05-10T02:57:54.154Z,9.00
2019-05-10T03:00:23.587Z,9.00
2019-05-10T03:02:53.154Z,9.00
2019-05-10T03:05:22.665Z,9.00
2019-05-10T03:07:54.666Z,9.00
2019-05-10T03:10:25.351Z,9.00
2019-05-10T03:12:54.996Z,9.00
2019-05-10T03:15:25.840Z,9.00
2019-05-10T03:17:56.078Z,9.00
2019-05-10T03:20:26.952Z,9.00
2019-05-10T03:22:56.458Z,9.00
2019-05-10T03:25:27.291Z,9.00
2019-05-10T03:27:56.812Z,9.00
2019-05-10T03:30:27.531Z,9.00
2019-05-10T03:32:57.076Z,9.00
2019-05-10T03:35:27.963Z,9.10
2019-05-10T03:37:57.541Z,9.10
2019-05-10T03:40:28.448Z,9.00
2019-05-10T03:42:58.016Z,9.00
2019-05-10T03:45:27.452Z,9.10
2019-05-10T03:47:57.048Z,9.00
2019-05-10T03:50:26.998Z,9.00
2019-05-10T03:52:56.542Z,9.10
2019-05-10T03:55:26.044Z,9.10
2019-05-10T03:57:55.550Z,9.10
2019-05-10T04:00:26.310Z,9.00
2019-05-10T04:02:55.791Z,9.00
2019-05-10T04:05:25.287Z,9.00
2019-05-10T04:07:54.751Z,9.10
2019-05-10T04:10:25.662Z,9.10
2019-05-10T04:12:55.130Z,9.10
2019-05-10T04:15:24.632Z,9.10
2019-05-10T04:17:54.109Z,9.10
2019-05-10T04:20:24.802Z,9.10
2019-05-10T04:22:54.215Z,9.10
2019-05-10T04:25:23.720Z,9.10
2019-05-10T04:27:53.183Z,9.10
2019-05-10T04:30:24.059Z,9.20
2019-05-10T04:32:53.534Z,9.10
2019-05-10T04:35:24.347Z,9.20
2019-05-10T04:37:53.802Z,9.20
2019-05-10T04:40:23.265Z,9.30
2019-05-10T04:42:52.729Z,9.20
2019-05-10T04:45:23.631Z,9.20
2019-05-10T04:47:53.108Z,9.30
2019-05-10T04:50:22.681Z,9.20
2019-05-10T04:52:52.109Z,9.30
2019-05-10T04:55:21.613Z,9.30
2019-05-10T04:57:52.281Z,9.30
2019-05-10T05:00:21.784Z,9.40
2019-05-10T05:02:52.766Z,9.40
2019-05-10T05:05:22.264Z,9.50
2019-05-10T05:07:53.133Z,9.50
2019-05-10T05:10:22.636Z,9.70
2019-05-10T05:12:52.128Z,9.70
2019-05-10T05:15:22.916Z,9.70
2019-05-10T05:17:52.324Z,9.60
2019-05-10T05:20:21.783Z,9.70
2019-05-10T05:22:52.463Z,9.70
2019-05-10T05:25:22.216Z,9.70
2019-05-10T05:28:06.651Z,9.80
2019-05-10T05:30:22.844Z,9.80
2019-05-10T05:32:52.321Z,9.80
2019-05-10T05:35:21.752Z,9.90
2019-05-10T05:37:52.427Z,9.90
2019-05-10T05:40:21.948Z,10.00
2019-05-10T05:42:51.423Z,10.00
2019-05-10T05:45:22.236Z,10.00
2019-05-10T05:47:51.644Z,10.00
2019-05-10T05:50:21.160Z,10.00
2019-05-10T05:52:51.848Z,10.10
2019-05-10T05:55:23.121Z,10.60
2019-05-10T05:57:52.481Z,11.00
2019-05-10T06:00:23.198Z,11.10
2019-05-10T06:02:52.678Z,11.20
2019-05-10T06:05:33.503Z,11.10
2019-05-10T06:07:54.535Z,11.10
2019-05-10T06:10:24.046Z,11.10
2019-05-10T06:12:53.523Z,11.30
2019-05-10T06:15:29.092Z,11.30
2019-05-10T06:17:57.247Z,11.40
2019-05-10T06:20:27.869Z,11.70
2019-05-10T06:23:06.318Z,11.70
2019-05-10T06:25:38.911Z,11.70
2019-05-10T06:27:59.447Z,12.00
2019-05-10T06:30:28.886Z,12.30
2019-05-10T06:33:00.894Z,12.50
2019-05-10T06:35:29.528Z,12.60
2019-05-10T06:37:58.995Z,12.60
2019-05-10T06:40:35.701Z,12.70
2019-05-10T06:42:59.601Z,12.80
2019-05-10T06:45:30.508Z,13.10
2019-05-10T06:47:59.911Z,13.30
2019-05-10T06:50:31.759Z,13.70
2019-05-10T06:53:07.862Z,13.40
2019-05-10T06:55:31.639Z,13.10
2019-05-10T06:58:01.074Z,13.60
2019-05-10T07:00:30.577Z,13.70
2019-05-10T07:03:00.074Z,13.40
2019-05-10T07:05:29.671Z,12.90
2019-05-10T07:08:13.884Z,13.50
2019-05-10T07:10:33.760Z,13.90
2019-05-10T07:13:03.442Z,14.10
2019-05-10T07:15:35.663Z,13.80
2019-05-10T07:18:06.098Z,13.50
2019-05-10T07:20:36.976Z,13.30
2019-05-10T07:23:07.830Z,13.40
2019-05-10T07:25:37.758Z,13.30
2019-05-10T07:28:09.383Z,13.30
2019-05-10T07:30:41.283Z,12.70
2019-05-10T07:33:10.717Z,12.90
2019-05-10T07:35:40.212Z,13.20
2019-05-10T07:38:09.727Z,13.70
2019-05-10T07:40:39.207Z,14.40
2019-05-10T07:43:09.113Z,14.90
2019-05-10T07:45:39.981Z,14.70
2019-05-10T07:48:10.391Z,14.50
2019-05-10T07:50:42.413Z,13.90
2019-05-10T07:53:16.255Z,13.80
2019-05-10T07:55:43.508Z,14.10
2019-05-10T07:58:13.023Z,14.20
2019-05-10T08:00:44.795Z,14.50
2019-05-10T08:03:17.704Z,14.70
2019-05-10T08:05:51.029Z,14.80
2019-05-10T08:08:19.209Z,14.80
2019-05-10T08:10:48.824Z,14.40
2019-05-10T08:13:21.140Z,14.90
2019-05-10T08:15:49.725Z,15.90
2019-05-10T08:18:23.508Z,16.10
2019-05-10T08:20:57.810Z,16.30
2019-05-10T08:23:23.786Z,15.80
2019-05-10T08:25:54.067Z,15.40
2019-05-10T08:28:27.991Z,15.60
2019-05-10T08:30:58.657Z,14.50
2019-05-10T08:33:25.807Z,13.70
2019-05-10T08:36:00.858Z,14.40
2019-05-10T08:38:26.347Z,14.40
2019-05-10T08:40:55.834Z,14.20
2019-05-10T08:43:30.860Z,14.80
2019-05-10T08:45:57.971Z,16.00
2019-05-10T08:48:27.900Z,15.40
2019-05-10T08:51:02.028Z,16.30
2019-05-10T08:53:28.565Z,16.50
2019-05-10T08:56:01.947Z,16.70
2019-05-10T09:01:26.700Z,16.60
2019-05-10T09:03:55.136Z,16.60
2019-05-10T09:06:22.081Z,16.10
2019-05-10T09:08:52.916Z,16.10
2019-05-10T09:11:23.227Z,15.80
2019-05-10T09:13:53.848Z,15.70
2019-05-10T09:16:28.949Z,15.60
2019-05-10T09:18:55.091Z,15.80
2019-05-10T09:21:25.890Z,15.60
2019-05-10T09:24:01.706Z,15.00
2019-05-10T09:26:26.499Z,15.10
2019-05-10T09:28:57.753Z,15.50
2019-05-10T09:31:28.403Z,15.80
2019-05-10T09:33:57.915Z,16.50
2019-05-10T09:36:31.312Z,16.50
2019-05-10T09:38:59.733Z,16.80
2019-05-10T09:41:33.762Z,17.30
2019-05-10T09:44:02.837Z,16.40
2019-05-10T09:46:32.475Z,16.60
2019-05-10T09:49:06.758Z,17.10
2019-05-10T09:51:33.346Z,17.40
2019-05-10T09:54:02.937Z,17.60
2019-05-10T09:56:39.561Z,17.50
2019-05-10T09:59:08.061Z,18.10
2019-05-10T10:01:38.010Z,17.80
2019-05-10T10:04:07.512Z,18.50
2019-05-10T10:06:41.584Z,19.00
2019-05-10T10:09:10.913Z,18.10
2019-05-10T10:11:40.359Z,17.60
2019-05-10T10:14:10.198Z,18.40
2019-05-10T10:16:39.744Z,18.20
2019-05-10T10:19:09.255Z,18.10
2019-05-10T10:21:39.068Z,19.50
2019-05-10T10:24:15.517Z,18.80
2019-05-10T10:26:40.507Z,18.80
2019-05-10T10:29:10.223Z,18.70
2019-05-10T10:31:51.455Z,19.90
2019-05-10T10:34:12.631Z,20.50
2019-05-10T10:36:44.150Z,19.80
2019-05-10T10:39:13.717Z,19.00
2019-05-10T10:41:44.394Z,19.00
2019-05-10T10:44:13.907Z,18.90
2019-05-10T10:46:43.383Z,18.70
2019-05-10T10:49:14.588Z,18.60
2019-05-10T10:51:43.922Z,18.60
2019-05-10T10:54:13.423Z,19.20
2019-05-10T10:56:42.904Z,19.20
2019-05-10T10:59:12.405Z,19.20
2019-05-10T11:01:49.991Z,19.50
2019-05-10T11:04:16.237Z,19.00
2019-05-10T11:06:45.326Z,18.30
2019-05-10T11:09:14.851Z,19.10
2019-05-10T11:11:45.636Z,19.20
2019-05-10T11:14:15.148Z,19.20
2019-05-10T11:16:46.803Z,18.70
2019-05-10T11:19:16.983Z,18.90
2019-05-10T11:21:47.687Z,19.30
2019-05-10T11:24:18.661Z,18.80
2019-05-10T11:26:48.288Z,17.30
2019-05-10T11:29:25.458Z,16.80
2019-05-10T11:32:10.400Z,17.30
2019-05-10T11:34:21.612Z,18.20
2019-05-10T11:36:51.314Z,18.10
2019-05-10T11:39:26.482Z,17.50
2019-05-10T11:42:00.984Z,17.40
2019-05-10T11:44:25.817Z,17.00
2019-05-10T11:46:54.126Z,18.20
2019-05-10T11:49:23.605Z,19.10
2019-05-10T11:51:58.590Z,19.60
2019-05-10T11:54:25.408Z,20.70
2019-05-10T11:59:27.395Z,19.70
2019-05-10T12:02:00.509Z,19.30
2019-05-10T12:04:38.657Z,18.90
2019-05-10T12:07:05.962Z,20.20
2019-05-10T12:09:33.081Z,19.90
2019-05-10T12:12:03.864Z,19.90
2019-05-10T12:14:33.335Z,19.80
2019-05-10T12:17:06.500Z,20.10
2019-05-10T12:19:47.694Z,20.60
2019-05-10T12:22:06.378Z,21.00
2019-05-10T12:24:52.162Z,20.90
2019-05-10T12:25:59.517Z,19.90
2019-05-10T12:27:18.756Z,21.50
2019-05-10T12:29:39.270Z,21.20
2019-05-10T12:32:10.439Z,21.10
2019-05-10T12:34:41.010Z,20.40
2019-05-10T12:37:10.659Z,19.60
2019-05-10T12:39:40.130Z,18.90
2019-05-10T12:42:11.333Z,18.70
2019-05-10T12:44:44.020Z,18.50
2019-05-10T12:47:13.069Z,18.30
2019-05-10T12:49:42.543Z,17.40
2019-05-10T12:52:14.184Z,17.40
2019-05-10T12:54:43.155Z,17.00
2019-05-10T12:57:12.648Z,17.20
2019-05-10T12:59:42.190Z,16.80
2019-05-10T13:02:13.219Z,16.40
2019-05-10T13:04:47.330Z,16.10
2019-05-10T13:07:15.149Z,16.00
2019-05-10T13:09:44.617Z,16.10
2019-05-10T13:12:15.429Z,16.40
2019-05-10T13:14:46.598Z,16.60
2019-05-10T13:17:17.080Z,16.60
2019-05-10T13:19:46.843Z,16.20
2019-05-10T13:22:17.556Z,15.90
2019-05-10T13:24:47.027Z,15.60
2019-05-10T13:27:17.741Z,15.80
2019-05-10T13:29:52.955Z,15.80
2019-05-10T13:32:20.720Z,16.00
2019-05-10T13:34:50.637Z,16.10
2019-05-10T13:37:24.757Z,15.90
2019-05-10T13:39:51.264Z,16.00
2019-05-10T13:42:20.879Z,16.50
2019-05-10T13:44:50.358Z,17.20
2019-05-10T13:47:21.088Z,17.80
2019-05-10T13:49:50.579Z,17.90
2019-05-10T13:52:21.391Z,17.70
2019-05-10T13:54:50.862Z,17.80
2019-05-10T13:57:21.575Z,17.70
2019-05-10T13:59:55.121Z,17.40
2019-05-10T14:02:30.098Z,17.70
2019-05-10T14:04:53.283Z,17.60
2019-05-10T14:07:23.995Z,17.60
2019-05-10T14:09:53.395Z,17.80
2019-05-10T14:12:23.713Z,17.60
2019-05-10T14:14:55.303Z,17.60
2019-05-10T14:17:25.266Z,17.30
2019-05-10T14:19:54.738Z,17.20
2019-05-10T14:22:24.285Z,16.90
2019-05-10T14:24:58.944Z,16.90
2019-05-10T14:27:29.735Z,17.40
2019-05-10T14:29:55.988Z,17.70
2019-05-10T14:32:26.861Z,17.80
2019-05-10T14:34:56.324Z,17.70
2019-05-10T14:37:25.845Z,17.60
2019-05-10T14:39:55.255Z,17.50
2019-05-10T14:42:31.175Z,17.80
2019-05-10T14:44:57.008Z,17.90
2019-05-10T14:47:27.715Z,17.80
2019-05-10T14:49:57.196Z,17.80
2019-05-10T14:52:26.705Z,17.60
2019-05-10T14:54:56.921Z,17.30
2019-05-10T14:57:27.779Z,17.10
2019-05-10T14:59:57.261Z,17.00
2019-05-10T15:02:27.980Z,17.10
2019-05-10T15:05:00.951Z,17.00
2019-05-10T15:07:29.727Z,16.90
2019-05-10T15:10:00.391Z,16.70
2019-05-10T15:12:31.839Z,16.50
2019-05-10T15:15:01.311Z,16.50
2019-05-10T15:17:32.227Z,16.70
2019-05-10T15:20:01.698Z,17.00
2019-05-10T15:22:32.607Z,16.70
2019-05-10T15:25:02.147Z,16.60
2019-05-10T15:27:32.967Z,16.60
2019-05-10T15:30:05.299Z,16.60
2019-05-10T15:32:34.944Z,16.50
2019-05-10T15:35:07.984Z,16.40
2019-05-10T15:37:40.815Z,16.10
2019-05-10T15:40:09.286Z,16.00
2019-05-10T15:42:39.965Z,16.10
2019-05-10T15:45:14.468Z,16.00
2019-05-10T15:47:50.847Z,16.30
2019-05-10T15:50:13.263Z,16.50
2019-05-10T15:52:46.519Z,16.30
2019-05-10T15:55:16.471Z,16.50
2019-05-10T15:57:51.651Z,16.50
2019-05-10T16:00:18.500Z,16.50
2019-05-10T16:02:53.104Z,16.40
2019-05-10T16:05:25.873Z,16.40
2019-05-10T16:07:53.230Z,16.40
2019-05-10T16:10:28.369Z,16.30
2019-05-10T16:12:53.847Z,16.10
2019-05-10T16:15:23.353Z,16.40
2019-05-10T16:17:53.671Z,16.00
2019-05-10T16:20:23.960Z,16.20
2019-05-10T16:22:53.428Z,15.70
2019-05-10T16:25:24.131Z,15.40
2019-05-10T16:27:53.607Z,15.30
2019-05-10T16:30:24.415Z,15.20
2019-05-10T16:32:53.892Z,15.30
2019-05-10T16:35:37.787Z,15.20
2019-05-10T16:37:54.424Z,15.20
2019-05-10T16:40:23.935Z,15.20
2019-05-10T16:42:53.425Z,15.30
2019-05-10T16:45:24.124Z,15.10
2019-05-10T16:47:53.608Z,14.90
2019-05-10T16:50:25.909Z,14.90
2019-05-10T16:52:59.322Z,14.90
2019-05-10T16:55:26.419Z,14.80
2019-05-10T16:57:55.895Z,14.90
2019-05-10T17:00:25.407Z,14.80
2019-05-10T17:02:54.879Z,14.70
2019-05-10T17:05:25.583Z,14.70
2019-05-10T17:07:58.867Z,14.70
2019-05-10T17:10:33.119Z,14.70
2019-05-10T17:12:59.495Z,14.80
2019-05-10T17:15:33.837Z,14.70
2019-05-10T17:18:00.569Z,14.70
2019-05-10T17:20:30.075Z,14.60
2019-05-10T17:23:08.186Z,14.60
2019-05-10T17:25:35.418Z,14.60
2019-05-10T17:28:03.124Z,14.60
2019-05-10T17:30:33.926Z,14.40
2019-05-10T17:33:05.889Z,14.40
2019-05-10T17:35:36.535Z,14.40
2019-05-10T17:38:07.885Z,14.50
2019-05-10T17:40:42.266Z,14.40
2019-05-10T17:43:14.371Z,14.40
2019-05-10T17:45:42.445Z,14.30
2019-05-10T17:48:12.004Z,14.40
2019-05-10T17:50:45.546Z,14.40
2019-05-10T17:53:14.200Z,14.30
2019-05-10T17:55:49.382Z,14.50
2019-05-10T17:58:17.196Z,14.50
2019-05-10T18:00:46.796Z,14.40
2019-05-10T18:03:16.271Z,14.30
2019-05-10T18:05:46.596Z,14.30
2019-05-10T18:08:16.875Z,14.20
2019-05-10T18:10:47.595Z,14.10
2019-05-10T18:13:17.070Z,14.00
2019-05-10T18:15:46.556Z,13.90
2019-05-10T18:18:16.135Z,13.90
2019-05-10T18:20:46.803Z,13.70
2019-05-10T18:23:21.146Z,13.70
2019-05-10T18:25:52.423Z,13.40
2019-05-10T18:28:21.655Z,13.20
2019-05-10T18:30:52.033Z,13.10
2019-05-10T18:33:21.547Z,13.10
2019-05-10T18:35:53.013Z,13.00
2019-05-10T18:38:22.095Z,12.80
2019-05-10T18:40:52.779Z,12.70
2019-05-10T18:43:22.360Z,12.60
2019-05-10T18:45:51.759Z,12.80
2019-05-10T18:48:21.196Z,12.70
2019-05-10T18:50:51.939Z,12.70
2019-05-10T18:53:21.457Z,12.50
2019-05-10T18:55:52.179Z,12.30
2019-05-10T18:58:23.412Z,12.30
2019-05-10T19:00:56.152Z,12.50
2019-05-10T19:03:27.869Z,12.10
2019-05-10T19:05:56.186Z,12.00
2019-05-10T19:08:25.593Z,12.10
2019-05-10T19:10:56.272Z,12.30
2019-05-10T19:13:26.021Z,12.30
2019-05-10T19:15:58.399Z,12.30
2019-05-10T19:18:26.827Z,12.20
2019-05-10T19:20:57.507Z,12.20
2019-05-10T19:23:27.017Z,12.10
2019-05-10T19:25:56.493Z,12.20
2019-05-10T19:28:28.400Z,12.20
2019-05-10T19:30:59.169Z,12.40
2019-05-10T19:33:35.617Z,12.20
2019-05-10T19:36:00.514Z,12.30
2019-05-10T19:38:30.031Z,12.40
2019-05-10T19:41:00.704Z,12.30
2019-05-10T19:43:30.213Z,12.10
2019-05-10T19:45:59.827Z,12.00
2019-05-10T19:48:35.138Z,12.00
2019-05-10T19:51:02.895Z,12.00
2019-05-10T19:53:31.472Z,11.80
2019-05-10T19:56:04.004Z,11.80
2019-05-10T19:58:33.939Z,11.80
2019-05-10T20:01:04.424Z,11.80
2019-05-10T20:03:33.918Z,11.80
2019-05-10T20:06:04.762Z,11.70
2019-05-10T20:08:34.321Z,11.70
2019-05-10T20:11:04.658Z,11.50
2019-05-10T20:13:34.177Z,11.40
2019-05-10T20:16:03.652Z,11.40
2019-05-10T20:18:33.203Z,11.10
2019-05-10T20:21:03.931Z,11.10
2019-05-10T20:23:33.423Z,11.10
2019-05-10T20:26:04.142Z,11.10
2019-05-10T20:28:34.473Z,11.10
2019-05-10T20:31:03.988Z,11.00
2019-05-10T20:33:33.482Z,11.00
2019-05-10T20:36:04.190Z,11.00
2019-05-10T20:38:33.599Z,11.10
2019-05-10T20:41:03.067Z,10.90
2019-05-10T20:43:32.531Z,11.00
2019-05-10T20:46:01.992Z,11.00
2019-05-10T20:48:31.479Z,11.00
2019-05-10T20:51:02.302Z,11.10
2019-05-10T20:53:31.794Z,10.90
2019-05-10T20:56:01.242Z,10.80
2019-05-10T20:58:30.822Z,10.70
2019-05-10T21:01:00.653Z,10.80
2019-05-10T21:03:30.130Z,10.80
2019-05-10T21:05:59.583Z,10.80
2019-05-10T21:08:29.000Z,10.90
2019-05-10T21:10:58.532Z,10.90
2019-05-10T21:13:28.049Z,11.10
2019-05-10T21:15:59.161Z,11.20
2019-05-10T21:18:28.778Z,11.30
2019-05-10T21:20:59.577Z,11.20
2019-05-10T21:23:29.112Z,11.20
2019-05-10T21:25:59.980Z,11.20
2019-05-10T21:28:29.464Z,11.20
2019-05-10T21:31:00.183Z,11.40
2019-05-10T21:33:29.709Z,11.30
2019-05-10T21:35:59.244Z,11.20
2019-05-10T21:38:33.043Z,11.30
2019-05-10T21:41:01.035Z,11.30
2019-05-10T21:43:30.612Z,11.30
2019-05-10T21:46:00.127Z,11.40
2019-05-10T21:48:29.659Z,11.60
2019-05-10T21:51:00.359Z,11.50
2019-05-10T21:53:29.850Z,11.50
2019-05-10T21:55:59.346Z,11.50
2019-05-10T21:58:28.739Z,11.60
2019-05-10T22:00:58.261Z,11.60
2019-05-10T22:03:28.096Z,11.60
2019-05-10T22:05:58.944Z,11.60
2019-05-10T22:08:28.523Z,11.80
2019-05-10T22:10:59.263Z,11.80
2019-05-10T22:13:28.870Z,12.00
2019-05-10T22:15:58.900Z,11.80
2019-05-10T22:18:28.763Z,11.80
2019-05-10T22:20:58.306Z,11.80
2019-05-10T22:23:27.759Z,11.80
2019-05-10T22:25:58.502Z,11.50
2019-05-10T22:28:28.006Z,11.60
2019-05-10T22:30:57.555Z,11.60
2019-05-10T22:33:27.071Z,11.70
2019-05-10T22:35:56.614Z,11.80
2019-05-10T22:38:26.134Z,11.90
2019-05-10T22:40:55.619Z,11.90
2019-05-10T22:43:26.603Z,12.00
2019-05-10T22:45:56.152Z,11.90
2019-05-10T22:48:25.662Z,11.80
2019-05-10T22:50:56.409Z,11.80
2019-05-10T22:53:25.848Z,11.70
2019-05-10T22:55:55.387Z,11.40
2019-05-10T22:58:24.828Z,11.10
2019-05-10T23:00:55.641Z,11.20
2019-05-10T23:03:25.162Z,11.30
2019-05-10T23:05:56.054Z,11.20
2019-05-10T23:08:25.570Z,11.20
2019-05-10T23:10:55.114Z,11.10
2019-05-10T23:13:24.668Z,10.90
2019-05-10T23:15:54.172Z,11.00
2019-05-10T23:18:23.719Z,10.90
2019-05-10T23:20:54.339Z,10.90
2019-05-10T23:23:23.819Z,10.70
2019-05-10T23:25:54.785Z,10.90
2019-05-10T23:28:24.376Z,11.00
2019-05-10T23:30:53.888Z,10.80
2019-05-10T23:33:23.366Z,10.80
2019-05-10T23:35:54.087Z,10.60
2019-05-10T23:38:23.632Z,10.60
2019-05-10T23:40:54.445Z,10.50
2019-05-10T23:43:23.992Z,10.50
2019-05-10T23:45:54.701Z,10.50
2019-05-10T23:48:24.258Z,10.40
2019-05-10T23:50:53.765Z,10.50
2019-05-10T23:53:23.313Z,10.60
2019-05-10T23:55:54.115Z,10.60
2019-05-10T23:58:23.667Z,10.60
